createdAt,value
2019-03-21T00:00:38.737Z,97187.00
2019-03-21T00:06:12.974Z,97195.00
2019-03-21T00:12:05.279Z,97186.00
2019-03-21T00:17:42.114Z,97183.00
2019-03-21T00:23:11.720Z,97173.00
2019-03-21T00:28:41.061Z,97166.00
2019-03-21T00:34:10.471Z,97170.00
2019-03-21T00:39:39.800Z,97167.00
2019-03-21T00:45:16.119Z,97165.00
2019-03-21T00:50:45.580Z,97175.00
2019-03-21T00:56:14.990Z,97161.00
2019-03-21T01:01:44.487Z,97159.00
2019-03-21T01:07:13.905Z,97166.00
2019-03-21T01:12:43.360Z,97159.00
2019-03-21T01:18:12.913Z,97145.00
2019-03-21T01:23:42.272Z,97147.00
2019-03-21T01:29:11.608Z,97133.00
2019-03-21T01:34:41.043Z,97136.00
2019-03-21T01:40:21.165Z,97119.00
2019-03-21T01:45:50.648Z,97113.00
2019-03-21T01:51:20.080Z,97112.00
2019-03-21T01:56:52.344Z,97121.00
2019-03-21T02:02:21.755Z,97105.00
2019-03-21T02:07:51.257Z,97107.00
2019-03-21T02:13:20.633Z,97118.00
2019-03-21T02:18:50.013Z,97108.00
2019-03-21T02:24:19.467Z,97111.00
2019-03-21T02:29:48.827Z,97112.00
2019-03-21T02:35:18.374Z,97114.00
2019-03-21T02:40:50.369Z,97105.00
2019-03-21T02:46:19.787Z,97126.00
2019-03-21T02:51:49.206Z,97124.00
2019-03-21T02:57:18.609Z,97116.00
2019-03-21T03:02:48.164Z,97116.00
2019-03-21T03:08:17.476Z,97114.00
2019-03-21T03:13:50.142Z,97116.00
2019-03-21T03:19:19.870Z,97112.00
2019-03-21T03:24:49.182Z,97114.00
2019-03-21T03:30:22.448Z,97106.00
2019-03-21T03:35:51.925Z,97114.00
2019-03-21T03:41:22.583Z,97116.00
2019-03-21T03:46:51.934Z,97116.00
2019-03-21T03:52:22.251Z,97122.00
2019-03-21T03:58:08.444Z,97107.00
2019-03-21T04:03:37.943Z,97112.00
2019-03-21T04:09:09.261Z,97113.00
2019-03-21T04:14:38.557Z,97105.00
2019-03-21T04:20:15.353Z,97109.00
2019-03-21T04:26:12.746Z,97104.00
2019-03-21T04:31:42.178Z,97102.00
2019-03-21T04:37:11.594Z,97091.00
2019-03-21T04:42:44.794Z,97090.00
2019-03-21T04:48:14.241Z,97086.00
2019-03-21T04:53:43.692Z,97080.00
2019-03-21T04:59:13.130Z,97069.00
2019-03-21T05:04:43.561Z,97062.00
2019-03-21T05:10:16.619Z,97052.00
2019-03-21T05:15:51.405Z,97044.00
2019-03-21T05:21:25.382Z,97043.00
2019-03-21T05:26:57.076Z,97048.00
2019-03-21T05:32:26.677Z,97034.00
2019-03-21T05:37:58.955Z,97039.00
2019-03-21T05:43:35.993Z,97040.00
2019-03-21T05:49:05.579Z,97050.00
2019-03-21T05:54:35.162Z,97053.00
2019-03-21T06:00:24.346Z,97054.00
2019-03-21T06:06:05.330Z,97069.00
2019-03-21T06:11:35.031Z,97070.00
2019-03-21T06:17:04.512Z,97079.00
2019-03-21T06:23:02.779Z,97091.00
2019-03-21T06:28:32.209Z,97094.00
2019-03-21T06:34:01.857Z,97104.00
2019-03-21T06:39:31.461Z,97099.00
2019-03-21T06:45:01.183Z,97109.00
2019-03-21T06:50:30.812Z,97109.00
2019-03-21T06:56:00.394Z,97113.00
2019-03-21T07:01:30.099Z,97112.00
2019-03-21T07:07:07.985Z,97126.00
2019-03-21T07:12:31.022Z,97130.00
2019-03-21T07:18:00.653Z,97129.00
2019-03-21T07:23:30.495Z,97127.00
2019-03-21T07:29:00.241Z,97134.00
2019-03-21T07:34:29.768Z,97130.00
2019-03-21T07:39:59.312Z,97148.00
2019-03-21T07:45:28.969Z,97161.00
2019-03-21T07:50:58.560Z,97151.00
2019-03-21T07:56:28.066Z,97148.00
2019-03-21T08:01:57.550Z,97145.00
2019-03-21T08:07:27.079Z,97145.00
2019-03-21T08:12:57.775Z,97137.00
2019-03-21T08:18:27.549Z,97144.00
2019-03-21T08:23:57.278Z,97152.00
2019-03-21T08:29:27.100Z,97141.00
2019-03-21T08:34:57.195Z,97146.00
2019-03-21T08:40:27.902Z,97153.00
2019-03-21T08:45:57.704Z,97147.00
2019-03-21T08:51:27.285Z,97143.00
2019-03-21T08:56:57.845Z,97150.00
2019-03-21T09:02:27.392Z,97143.00
2019-03-21T09:07:57.003Z,97149.00
2019-03-21T09:13:26.527Z,97141.00
2019-03-21T09:18:56.149Z,97138.00
2019-03-21T09:24:25.578Z,97143.00
2019-03-21T09:29:55.253Z,97137.00
2019-03-21T09:35:24.815Z,97144.00
2019-03-21T09:40:54.327Z,97132.00
2019-03-21T09:46:24.600Z,97140.00
2019-03-21T09:51:54.127Z,97126.00
2019-03-21T09:57:23.531Z,97129.00
2019-03-21T10:02:52.952Z,97125.00
2019-03-21T10:08:28.334Z,97134.00
2019-03-21T10:13:57.905Z,97122.00
2019-03-21T10:19:27.444Z,97118.00
2019-03-21T10:24:56.968Z,97116.00
2019-03-21T10:30:38.921Z,97118.00
2019-03-21T10:36:08.386Z,97108.00
2019-03-21T10:41:37.780Z,97116.00
2019-03-21T10:47:07.289Z,97104.00
2019-03-21T10:52:38.792Z,97105.00
2019-03-21T10:58:08.515Z,97097.00
2019-03-21T11:03:37.975Z,97090.00
2019-03-21T11:09:08.647Z,97099.00
2019-03-21T11:14:38.087Z,97092.00
2019-03-21T11:20:09.121Z,97087.00
2019-03-21T11:25:38.717Z,97089.00
2019-03-21T11:31:08.166Z,97074.00
2019-03-21T11:36:38.875Z,97081.00
2019-03-21T11:42:08.328Z,97066.00
2019-03-21T11:47:41.995Z,97059.00
2019-03-21T11:53:10.077Z,97060.00
2019-03-21T11:58:39.563Z,97044.00
2019-03-21T12:04:08.952Z,97040.00
2019-03-21T12:09:38.419Z,97030.00
2019-03-21T12:15:12.644Z,97021.00
2019-03-21T12:20:41.994Z,97017.00
2019-03-21T12:26:11.346Z,97014.00
2019-03-21T12:31:40.803Z,97002.00
2019-03-21T12:37:10.211Z,96999.00
2019-03-21T12:42:39.538Z,96991.00
2019-03-21T12:48:09.023Z,96966.00
2019-03-21T12:53:38.479Z,96979.00
2019-03-21T12:59:08.755Z,96959.00
2019-03-21T13:04:38.227Z,96956.00
2019-03-21T13:10:07.880Z,96949.00
2019-03-21T13:15:37.320Z,96949.00
2019-03-21T13:21:06.736Z,96957.00
2019-03-21T13:26:36.279Z,96947.00
2019-03-21T13:32:06.741Z,96941.00
2019-03-21T13:37:36.301Z,96940.00
2019-03-21T13:43:05.899Z,96940.00
2019-03-21T13:48:35.395Z,96939.00
2019-03-21T13:54:04.884Z,96935.00
2019-03-21T13:59:34.390Z,96934.00
2019-03-21T14:05:05.553Z,96927.00
2019-03-21T14:10:34.988Z,96902.00
2019-03-21T14:16:04.441Z,96893.00
2019-03-21T14:21:33.834Z,96891.00
2019-03-21T14:27:03.325Z,96888.00
2019-03-21T14:32:32.877Z,96869.00
2019-03-21T14:38:02.402Z,96882.00
2019-03-21T14:43:32.146Z,96857.00
2019-03-21T14:49:01.596Z,96871.00
2019-03-21T14:54:32.137Z,96874.00
2019-03-21T15:00:01.715Z,96875.00
2019-03-21T15:05:31.166Z,96871.00
2019-03-21T15:11:00.707Z,96882.00
2019-03-21T15:16:30.252Z,96886.00
2019-03-21T15:22:04.643Z,96885.00
2019-03-21T15:27:34.097Z,96907.00
2019-03-21T15:33:03.766Z,96913.00
2019-03-21T15:38:35.656Z,96913.00
2019-03-21T15:44:06.543Z,96891.00
2019-03-21T15:49:38.104Z,96894.00
2019-03-21T15:55:08.757Z,96891.00
2019-03-21T16:00:44.082Z,96888.00
2019-03-21T16:06:13.547Z,96875.00
2019-03-21T16:11:43.220Z,96893.00
2019-03-21T16:17:12.934Z,96883.00
2019-03-21T16:22:42.248Z,96916.00
2019-03-21T16:28:11.773Z,96923.00
2019-03-21T16:33:43.346Z,96929.00
2019-03-21T16:39:12.571Z,96918.00
2019-03-21T16:44:42.172Z,96907.00
2019-03-21T16:50:18.850Z,96914.00
2019-03-21T16:55:48.569Z,96918.00
2019-03-21T17:01:18.158Z,96928.00
2019-03-21T17:06:47.508Z,96926.00
2019-03-21T17:12:16.911Z,96926.00
2019-03-21T17:17:46.390Z,96937.00
2019-03-21T17:23:15.898Z,96925.00
2019-03-21T17:28:45.264Z,96933.00
2019-03-21T17:34:14.754Z,96946.00
2019-03-21T17:39:44.197Z,96943.00
2019-03-21T17:45:18.427Z,96947.00
2019-03-21T17:50:47.831Z,96939.00
2019-03-21T17:56:17.251Z,96936.00
2019-03-21T18:01:47.025Z,96933.00
2019-03-21T18:07:16.737Z,96941.00
2019-03-21T18:12:55.041Z,96940.00
2019-03-21T18:18:25.470Z,96942.00
2019-03-21T18:23:57.922Z,96963.00
2019-03-21T18:29:27.597Z,96958.00
2019-03-21T18:34:57.548Z,96958.00
2019-03-21T18:40:27.259Z,96973.00
2019-03-21T18:45:57.923Z,96962.00
2019-03-21T18:51:28.555Z,96972.00
2019-03-21T18:56:58.329Z,96972.00
2019-03-21T19:02:47.538Z,96977.00
2019-03-21T19:08:44.267Z,96972.00
2019-03-21T19:14:13.862Z,96980.00
2019-03-21T19:19:43.268Z,96964.00
2019-03-21T19:25:18.346Z,96965.00
2019-03-21T19:30:44.345Z,96959.00
2019-03-21T19:36:13.916Z,96951.00
2019-03-21T19:41:43.343Z,96959.00
2019-03-21T19:47:23.157Z,96946.00
2019-03-21T19:52:43.931Z,96955.00
2019-03-21T19:58:13.503Z,96954.00
2019-03-21T20:03:43.021Z,96951.00
2019-03-21T20:09:12.597Z,96940.00
2019-03-21T20:14:42.208Z,96938.00
2019-03-21T20:20:17.445Z,96950.00
2019-03-21T20:25:50.036Z,96963.00
2019-03-21T20:31:19.398Z,96953.00
2019-03-21T20:36:48.744Z,96950.00
2019-03-21T20:42:18.172Z,96954.00
2019-03-21T20:47:48.762Z,96947.00
2019-03-21T20:53:19.780Z,96945.00
2019-03-21T20:58:50.080Z,96945.00
2019-03-21T21:04:21.566Z,96936.00
2019-03-21T21:09:51.110Z,96936.00
2019-03-21T21:15:20.634Z,96933.00
2019-03-21T21:20:52.228Z,96935.00
2019-03-21T21:26:21.548Z,96934.00
2019-03-21T21:32:01.432Z,96930.00
2019-03-21T21:37:31.433Z,96924.00
2019-03-21T21:43:02.860Z,96932.00
2019-03-21T21:48:32.682Z,96934.00
2019-03-21T21:54:02.311Z,96935.00
2019-03-21T21:59:33.200Z,96919.00
2019-03-21T22:05:02.742Z,96921.00
2019-03-21T22:10:32.408Z,96922.00
2019-03-21T22:16:03.817Z,96917.00
2019-03-21T22:21:33.469Z,96925.00
2019-03-21T22:27:03.237Z,96917.00
2019-03-21T22:32:33.117Z,96919.00
2019-03-21T22:38:02.899Z,96905.00
2019-03-21T22:43:32.430Z,96900.00
2019-03-21T22:49:01.914Z,96901.00
2019-03-21T22:54:31.632Z,96888.00
2019-03-21T23:00:20.440Z,96894.00
2019-03-21T23:05:49.905Z,96882.00
2019-03-21T23:11:19.256Z,96884.00
2019-03-21T23:16:48.648Z,96887.00
2019-03-21T23:22:18.086Z,96873.00
2019-03-21T23:27:47.487Z,96880.00
2019-03-21T23:33:16.822Z,96885.00
2019-03-21T23:38:46.292Z,96882.00
2019-03-21T23:44:15.683Z,96882.00
2019-03-21T23:49:45.197Z,96873.00
2019-03-21T23:55:16.924Z,96873.00
